createdAt,value
2017-06-23T00:00:07.224Z,1005.49
2017-06-23T00:01:07.206Z,1005.54
2017-06-23T00:02:07.187Z,1005.55
2017-06-23T00:03:07.166Z,1005.6
2017-06-23T00:04:07.151Z,1005.59
2017-06-23T00:05:07.132Z,1005.63
2017-06-23T00:06:07.111Z,1005.61
2017-06-23T00:07:07.096Z,1005.61
2017-06-23T00:08:07.075Z,1005.63
2017-06-23T00:09:07.054Z,1005.58
2017-06-23T00:10:07.039Z,1005.66
2017-06-23T00:11:07.018Z,1005.7
2017-06-23T00:12:07.000Z,1005.64
2017-06-23T00:13:06.981Z,1005.65
2017-06-23T00:14:06.963Z,1005.63
2017-06-23T00:15:06.943Z,1005.69
2017-06-23T00:16:06.929Z,1005.64
2017-06-23T00:17:06.911Z,1005.66
2017-06-23T00:18:06.890Z,1005.67
2017-06-23T00:19:06.871Z,1005.66
2017-06-23T00:20:06.847Z,1005.65
2017-06-23T00:21:06.839Z,1005.67
2017-06-23T00:22:06.816Z,1005.69
2017-06-23T00:23:06.798Z,1005.7
2017-06-23T00:24:06.779Z,1005.69
2017-06-23T00:25:06.761Z,1005.69
2017-06-23T00:26:06.741Z,1005.77
2017-06-23T00:27:06.727Z,1005.71
2017-06-23T00:28:06.701Z,1005.66
2017-06-23T00:29:06.686Z,1005.72
2017-06-23T00:30:06.670Z,1005.73
2017-06-23T00:31:06.649Z,1005.76
2017-06-23T00:32:06.626Z,1005.71
2017-06-23T00:33:06.660Z,1005.74
2017-06-23T00:34:06.595Z,1005.69
2017-06-23T00:35:06.573Z,1005.63
2017-06-23T00:36:06.554Z,1005.72
2017-06-23T00:37:06.535Z,1005.71
2017-06-23T00:38:06.518Z,1005.76
2017-06-23T00:39:06.499Z,1005.73
2017-06-23T00:40:06.486Z,1005.7
2017-06-23T00:41:06.462Z,1005.72
2017-06-23T00:42:06.443Z,1005.76
2017-06-23T00:43:06.427Z,1005.73
2017-06-23T00:44:06.404Z,1005.72
2017-06-23T00:45:06.385Z,1005.77
2017-06-23T00:46:06.367Z,1005.79
2017-06-23T00:47:06.352Z,1005.86
2017-06-23T00:48:06.357Z,1005.78
2017-06-23T00:49:06.310Z,1005.81
2017-06-23T00:50:06.294Z,1005.76
2017-06-23T00:51:06.272Z,1005.83
2017-06-23T00:52:06.254Z,1005.82
2017-06-23T00:53:06.238Z,1005.83
2017-06-23T00:54:06.217Z,1005.78
2017-06-23T00:55:06.198Z,1005.75
2017-06-23T00:56:06.180Z,1005.76
2017-06-23T00:57:06.181Z,1005.73
2017-06-23T00:58:06.140Z,1005.81
2017-06-23T00:59:06.129Z,1005.78
2017-06-23T01:00:06.257Z,1005.77
2017-06-23T01:01:06.086Z,1005.79
2017-06-23T01:02:06.067Z,1005.72
2017-06-23T01:03:06.048Z,1005.76
2017-06-23T01:04:06.028Z,1005.72
2017-06-23T01:05:06.007Z,1005.74
2017-06-23T01:06:05.992Z,1005.75
2017-06-23T01:07:05.973Z,1005.79
2017-06-23T01:08:05.953Z,1005.78
2017-06-23T01:09:05.938Z,1005.79
2017-06-23T01:10:05.916Z,1005.76
2017-06-23T01:11:05.907Z,1005.74
2017-06-23T01:12:05.878Z,1005.79
2017-06-23T01:13:05.858Z,1005.78
2017-06-23T01:14:05.839Z,1005.78
2017-06-23T01:15:05.823Z,1005.79
2017-06-23T01:16:05.805Z,1005.77
2017-06-23T01:17:05.788Z,1005.72
2017-06-23T01:18:05.815Z,1005.72
2017-06-23T01:19:05.751Z,1005.77
2017-06-23T01:20:05.726Z,1005.7
2017-06-23T01:21:05.710Z,1005.71
2017-06-23T01:22:05.691Z,1005.74
2017-06-23T01:23:05.673Z,1005.75
2017-06-23T01:24:05.656Z,1005.7
2017-06-23T01:25:05.633Z,1005.77
2017-06-23T01:26:05.615Z,1005.76
2017-06-23T01:27:05.596Z,1005.75
2017-06-23T01:28:05.575Z,1005.72
2017-06-23T01:29:05.560Z,1005.77
2017-06-23T01:30:05.546Z,1005.78
2017-06-23T01:31:05.521Z,1005.78
2017-06-23T01:32:05.503Z,1005.73
2017-06-23T01:33:05.487Z,1005.74
2017-06-23T01:34:05.467Z,1005.66
2017-06-23T01:35:05.448Z,1005.72
2017-06-23T01:36:05.427Z,1005.66
2017-06-23T01:37:05.410Z,1005.71
2017-06-23T01:38:05.395Z,1005.74
2017-06-23T01:39:05.374Z,1005.73
2017-06-23T01:40:05.353Z,1005.75
2017-06-23T01:41:05.339Z,1005.83
2017-06-23T01:42:05.316Z,1005.72
2017-06-23T01:43:05.296Z,1005.76
2017-06-23T01:44:05.278Z,1005.73
2017-06-23T01:45:05.260Z,1005.74
2017-06-23T01:46:05.242Z,1005.78
2017-06-23T01:47:05.219Z,1005.77
2017-06-23T01:48:05.203Z,1005.76
2017-06-23T01:49:05.182Z,1005.77
2017-06-23T01:50:05.167Z,1005.77
2017-06-23T01:51:05.147Z,1005.81
2017-06-23T01:52:05.127Z,1005.79
2017-06-23T01:53:05.108Z,1005.77
2017-06-23T01:54:05.089Z,1005.82
2017-06-23T01:55:05.073Z,1005.79
2017-06-23T01:56:05.054Z,1005.76
2017-06-23T01:57:05.037Z,1005.82
2017-06-23T01:58:05.019Z,1005.81
2017-06-23T01:59:04.995Z,1005.87
2017-06-23T02:00:04.977Z,1005.88
2017-06-23T02:01:04.961Z,1005.86
2017-06-23T02:02:04.941Z,1005.83
2017-06-23T02:03:04.924Z,1005.75
2017-06-23T02:04:04.905Z,1005.79
2017-06-23T02:05:04.884Z,1005.79
2017-06-23T02:06:04.865Z,1005.77
2017-06-23T02:07:04.899Z,1005.84
2017-06-23T02:08:04.828Z,1005.81
2017-06-23T02:09:04.813Z,1005.77
2017-06-23T02:10:04.795Z,1005.77
2017-06-23T02:11:04.771Z,1005.77
2017-06-23T02:12:04.755Z,1005.77
2017-06-23T02:13:04.736Z,1005.75
2017-06-23T02:14:04.717Z,1005.77
2017-06-23T02:15:04.698Z,1005.76
2017-06-23T02:16:04.677Z,1005.76
2017-06-23T02:17:04.658Z,1005.76
2017-06-23T02:18:04.640Z,1005.72
2017-06-23T02:19:04.622Z,1005.79
2017-06-23T02:20:04.606Z,1005.78
2017-06-23T02:21:04.583Z,1005.73
2017-06-23T02:22:04.568Z,1005.77
2017-06-23T02:23:04.547Z,1005.75
2017-06-23T02:24:04.529Z,1005.84
2017-06-23T02:25:04.510Z,1005.81
2017-06-23T02:26:04.487Z,1005.8
2017-06-23T02:27:04.521Z,1005.81
2017-06-23T02:28:04.452Z,1005.81
2017-06-23T02:29:04.434Z,1005.79
2017-06-23T02:30:04.416Z,1005.88
2017-06-23T02:31:04.398Z,1005.82
2017-06-23T02:32:04.377Z,1005.77
2017-06-23T02:33:04.357Z,1005.8
2017-06-23T02:34:04.341Z,1005.81
2017-06-23T02:35:04.322Z,1005.76
2017-06-23T02:36:04.303Z,1005.86
2017-06-23T02:37:04.287Z,1005.85
2017-06-23T02:38:04.265Z,1005.91
2017-06-23T02:39:04.244Z,1005.83
2017-06-23T02:40:04.228Z,1005.94
2017-06-23T02:41:04.207Z,1005.84
2017-06-23T02:42:04.189Z,1005.9
2017-06-23T02:43:04.172Z,1005.87
2017-06-23T02:44:04.150Z,1005.91
2017-06-23T02:45:04.134Z,1005.87
2017-06-23T02:46:04.113Z,1005.88
2017-06-23T02:47:04.095Z,1005.92
2017-06-23T02:48:04.076Z,1005.85
2017-06-23T02:49:04.059Z,1005.93
2017-06-23T02:50:04.038Z,1005.95
2017-06-23T02:51:04.018Z,1005.91
2017-06-23T02:52:04.001Z,1005.96
2017-06-23T02:53:03.981Z,1005.92
2017-06-23T02:54:03.962Z,1005.95
2017-06-23T02:55:03.944Z,1005.93
2017-06-23T02:56:03.924Z,1005.93
2017-06-23T02:57:03.906Z,1005.99
2017-06-23T02:58:03.890Z,1005.97
2017-06-23T02:59:03.868Z,1005.93
2017-06-23T03:00:03.847Z,1005.95
2017-06-23T03:01:03.830Z,1005.95
2017-06-23T03:02:03.814Z,1005.96
2017-06-23T03:03:03.793Z,1005.95
2017-06-23T03:04:03.779Z,1005.91
2017-06-23T03:05:03.756Z,1005.96
2017-06-23T03:06:03.736Z,1005.87
2017-06-23T03:07:03.718Z,1005.89
2017-06-23T03:08:03.700Z,1005.88
2017-06-23T03:09:03.680Z,1005.85
2017-06-23T03:10:03.710Z,1005.91
2017-06-23T03:11:03.643Z,1005.85
2017-06-23T03:12:03.623Z,1005.91
2017-06-23T03:13:03.602Z,1005.88
2017-06-23T03:14:03.586Z,1005.91
2017-06-23T03:15:03.567Z,1005.94
2017-06-23T03:16:03.548Z,1005.94
2017-06-23T03:17:03.528Z,1005.97
2017-06-23T03:18:03.561Z,1005.95
2017-06-23T03:19:03.493Z,1005.98
2017-06-23T03:20:03.472Z,1006.02
2017-06-23T03:21:03.454Z,1005.99
2017-06-23T03:22:03.434Z,1006.04
2017-06-23T03:23:03.416Z,1006.02
2017-06-23T03:24:03.397Z,1006.01
2017-06-23T03:25:03.379Z,1006.06
2017-06-23T03:26:03.361Z,1006.09
2017-06-23T03:27:03.339Z,1006.07
2017-06-23T03:28:03.322Z,1006.09
2017-06-23T03:29:03.303Z,1006.1
2017-06-23T03:30:03.282Z,1006.08
2017-06-23T03:31:03.266Z,1006.14
2017-06-23T03:32:03.248Z,1006.14
2017-06-23T03:33:03.226Z,1006.1
2017-06-23T03:34:03.210Z,1006.18
2017-06-23T03:35:03.188Z,1006.19
2017-06-23T03:36:03.171Z,1006.17
2017-06-23T03:37:03.155Z,1006.17
2017-06-23T03:38:03.135Z,1006.12
2017-06-23T03:39:03.114Z,1006.12
2017-06-23T03:40:03.094Z,1006.13
2017-06-23T03:41:03.077Z,1006.13
2017-06-23T03:42:03.059Z,1006.15
2017-06-23T03:43:03.087Z,1006.18
2017-06-23T03:44:03.026Z,1006.18
2017-06-23T03:45:03.003Z,1006.22
2017-06-23T03:46:02.984Z,1006.2
2017-06-23T03:47:02.965Z,1006.23
2017-06-23T03:48:02.943Z,1006.24
2017-06-23T03:49:02.926Z,1006.24
2017-06-23T03:50:02.907Z,1006.26
2017-06-23T03:51:02.889Z,1006.23
2017-06-23T03:52:02.868Z,1006.19
2017-06-23T03:53:02.852Z,1006.23
2017-06-23T03:54:02.831Z,1006.27
2017-06-23T03:55:02.815Z,1006.26
2017-06-23T03:56:02.798Z,1006.3
2017-06-23T03:57:02.774Z,1006.3
2017-06-23T03:58:02.755Z,1006.32
2017-06-23T03:59:02.734Z,1006.36
2017-06-23T04:00:02.713Z,1006.36
2017-06-23T04:01:02.703Z,1006.34
2017-06-23T04:02:02.680Z,1006.33
2017-06-23T04:03:02.661Z,1006.37
2017-06-23T04:04:02.641Z,1006.33
2017-06-23T04:05:02.623Z,1006.36
2017-06-23T04:06:02.603Z,1006.33
2017-06-23T04:07:02.587Z,1006.35
2017-06-23T04:08:02.577Z,1006.42
2017-06-23T04:09:02.547Z,1006.41
2017-06-23T04:10:02.529Z,1006.39
2017-06-23T04:11:02.511Z,1006.41
2017-06-23T04:12:02.492Z,1006.41
2017-06-23T04:13:02.472Z,1006.39
2017-06-23T04:14:02.456Z,1006.45
2017-06-23T04:15:02.436Z,1006.4
2017-06-23T04:16:02.415Z,1006.4
2017-06-23T04:17:02.398Z,1006.42
2017-06-23T04:18:02.380Z,1006.44
2017-06-23T04:19:02.363Z,1006.4
2017-06-23T04:20:02.344Z,1006.41
2017-06-23T04:21:02.325Z,1006.45
2017-06-23T04:22:02.311Z,1006.46
2017-06-23T04:23:02.289Z,1006.44
2017-06-23T04:24:02.278Z,1006.46
2017-06-23T04:25:02.251Z,1006.45
2017-06-23T04:26:02.239Z,1006.5
2017-06-23T04:27:02.215Z,1006.48
2017-06-23T04:28:02.201Z,1006.45
2017-06-23T04:29:02.181Z,1006.5
2017-06-23T04:30:02.162Z,1006.46
2017-06-23T04:31:02.144Z,1006.52
2017-06-23T04:32:02.129Z,1006.55
2017-06-23T04:33:02.109Z,1006.54
2017-06-23T04:34:02.091Z,1006.57
2017-06-23T04:35:02.072Z,1006.61
2017-06-23T04:36:02.055Z,1006.63
2017-06-23T04:37:02.037Z,1006.63
2017-06-23T04:38:02.021Z,1006.65
2017-06-23T04:39:02.003Z,1006.67
2017-06-23T04:40:01.995Z,1006.65
2017-06-23T04:41:01.968Z,1006.68
2017-06-23T04:42:01.952Z,1006.63
2017-06-23T04:43:01.934Z,1006.66
2017-06-23T04:44:01.919Z,1006.68
2017-06-23T04:45:01.896Z,1006.67
2017-06-23T04:46:01.880Z,1006.69
2017-06-23T04:47:01.865Z,1006.74
2017-06-23T04:48:01.846Z,1006.77
2017-06-23T04:49:01.830Z,1006.77
2017-06-23T04:50:01.812Z,1006.83
2017-06-23T04:51:01.799Z,1006.81
2017-06-23T04:52:01.783Z,1006.78
2017-06-23T04:53:01.762Z,1006.8
2017-06-23T04:54:01.745Z,1006.82
2017-06-23T04:55:01.729Z,1006.84
2017-06-23T04:56:01.712Z,1006.8
2017-06-23T04:57:01.696Z,1006.86
2017-06-23T04:58:01.678Z,1006.88
2017-06-23T04:59:01.659Z,1006.85
2017-06-23T05:00:01.641Z,1006.91
2017-06-23T05:01:01.627Z,1006.89
2017-06-23T05:02:01.610Z,1006.91
2017-06-23T05:03:01.596Z,1006.89
2017-06-23T05:04:01.575Z,1006.9
2017-06-23T05:05:01.558Z,1006.92
2017-06-23T05:06:01.541Z,1006.95
2017-06-23T05:07:01.526Z,1006.97
2017-06-23T05:08:01.506Z,1007.02
2017-06-23T05:09:01.491Z,1006.97
2017-06-23T05:10:01.472Z,1006.98
2017-06-23T05:11:01.455Z,1007.02
2017-06-23T05:12:01.438Z,1007.07
2017-06-23T05:13:01.420Z,1007.03
2017-06-23T05:14:01.401Z,1007.02
2017-06-23T05:15:01.385Z,1007.06
2017-06-23T05:16:01.381Z,1007.06
2017-06-23T05:17:01.350Z,1007.08
2017-06-23T05:18:01.331Z,1007.08
2017-06-23T05:19:01.313Z,1007.1
2017-06-23T05:20:01.297Z,1007.13
2017-06-23T05:21:01.280Z,1007.14
2017-06-23T05:22:01.262Z,1007.16
2017-06-23T05:23:01.247Z,1007.21
2017-06-23T05:24:01.231Z,1007.2
2017-06-23T05:25:01.211Z,1007.17
2017-06-23T05:26:01.196Z,1007.17
2017-06-23T05:27:01.180Z,1007.21
2017-06-23T05:28:01.163Z,1007.18
2017-06-23T05:29:01.147Z,1007.18
2017-06-23T05:30:01.131Z,1007.16
2017-06-23T05:31:01.117Z,1007.21
2017-06-23T05:32:01.098Z,1007.24
2017-06-23T05:33:01.083Z,1007.31
2017-06-23T05:34:01.066Z,1007.31
2017-06-23T05:35:01.061Z,1007.34
2017-06-23T05:36:01.035Z,1007.42
2017-06-23T05:37:01.267Z,1007.46
2017-06-23T05:38:01.004Z,1007.43
2017-06-23T05:39:00.985Z,1007.42
2017-06-23T05:40:00.971Z,1007.44
2017-06-23T05:41:00.955Z,1007.47
2017-06-23T05:42:00.943Z,1007.37
2017-06-23T05:43:00.924Z,1007.35
2017-06-23T05:44:00.907Z,1007.4
2017-06-23T05:45:00.893Z,1007.44
2017-06-23T05:46:00.877Z,1007.42
2017-06-23T05:47:00.863Z,1007.39
2017-06-23T05:48:00.851Z,1007.45
2017-06-23T05:49:00.832Z,1007.4
2017-06-23T05:50:00.817Z,1007.41
2017-06-23T05:51:00.803Z,1007.43
2017-06-23T05:52:00.787Z,1007.47
2017-06-23T05:53:00.776Z,1007.43
2017-06-23T05:54:00.761Z,1007.47
2017-06-23T05:55:00.753Z,1007.51
2017-06-23T05:56:00.740Z,1007.46
2017-06-23T05:57:00.719Z,1007.5
2017-06-23T05:58:00.709Z,1007.51
2017-06-23T05:59:00.688Z,1007.52
2017-06-23T06:00:00.677Z,1007.52
2017-06-23T06:01:00.660Z,1007.53
2017-06-23T06:02:00.645Z,1007.56
2017-06-23T06:03:00.630Z,1007.6
2017-06-23T06:04:00.619Z,1007.58
2017-06-23T06:05:00.602Z,1007.56
2017-06-23T06:06:00.586Z,1007.54
2017-06-23T06:07:00.574Z,1007.58
2017-06-23T06:08:00.562Z,1007.62
2017-06-23T06:09:00.544Z,1007.66
2017-06-23T06:10:00.529Z,1007.65
2017-06-23T06:11:00.515Z,1007.6
2017-06-23T06:12:00.522Z,1007.59
2017-06-23T06:13:00.485Z,1007.61
2017-06-23T06:14:00.470Z,1007.6
2017-06-23T06:15:00.506Z,1007.57
2017-06-23T06:16:00.437Z,1007.55
2017-06-23T06:17:00.421Z,1007.51
2017-06-23T06:18:00.411Z,1007.61
2017-06-23T06:19:00.398Z,1007.57
2017-06-23T06:20:00.380Z,1007.55
2017-06-23T06:21:00.363Z,1007.51
2017-06-23T06:22:00.348Z,1007.56
2017-06-23T06:23:00.333Z,1007.62
2017-06-23T06:24:00.320Z,1007.6
2017-06-23T06:25:00.308Z,1007.59
2017-06-23T06:26:00.293Z,1007.57
2017-06-23T06:27:00.276Z,1007.59
2017-06-23T06:28:00.259Z,1007.66
2017-06-23T06:29:00.248Z,1007.7
2017-06-23T06:30:00.233Z,1007.67
2017-06-23T06:31:00.218Z,1007.68
2017-06-23T06:32:00.206Z,1007.7
2017-06-23T06:33:00.187Z,1007.7
2017-06-23T06:34:00.173Z,1007.64
2017-06-23T06:35:00.156Z,1007.68
2017-06-23T06:36:00.139Z,1007.68
2017-06-23T06:37:00.128Z,1007.72
2017-06-23T06:38:00.110Z,1007.74
2017-06-23T06:39:00.093Z,1007.68
2017-06-23T06:40:00.077Z,1007.72
2017-06-23T06:41:00.063Z,1007.72
2017-06-23T06:42:00.048Z,1007.73
2017-06-23T06:43:00.032Z,1007.72
2017-06-23T06:44:00.018Z,1007.73
2017-06-23T06:45:00.003Z,1007.69
2017-06-23T06:45:59.987Z,1007.69
2017-06-23T06:46:59.973Z,1007.72
2017-06-23T06:47:59.954Z,1007.73
2017-06-23T06:48:59.941Z,1007.72
2017-06-23T06:49:59.926Z,1007.71
2017-06-23T06:50:59.919Z,1007.77
2017-06-23T06:51:59.897Z,1007.8
2017-06-23T06:52:59.880Z,1007.82
2017-06-23T06:53:59.867Z,1007.83
2017-06-23T06:54:59.851Z,1007.76
2017-06-23T06:55:59.857Z,1007.77
2017-06-23T06:56:59.871Z,1007.74
2017-06-23T06:57:59.808Z,1007.74
2017-06-23T06:58:59.793Z,1007.78
2017-06-23T06:59:59.776Z,1007.74
2017-06-23T07:00:59.762Z,1007.84
2017-06-23T07:01:59.760Z,1007.84
2017-06-23T07:02:59.732Z,1007.89
2017-06-23T07:03:59.725Z,1007.91
2017-06-23T07:04:59.705Z,1007.89
2017-06-23T07:05:59.688Z,1007.86
2017-06-23T07:06:59.677Z,1007.87
2017-06-23T07:07:59.665Z,1007.8
2017-06-23T07:08:59.705Z,1007.83
2017-06-23T07:09:59.647Z,1007.91
2017-06-23T07:10:59.646Z,1007.86
2017-06-23T07:11:59.618Z,1007.86
2017-06-23T07:12:59.606Z,1007.9
2017-06-23T07:13:59.591Z,1007.89
2017-06-23T07:14:59.579Z,1007.94
2017-06-23T07:15:59.568Z,1007.92
2017-06-23T07:16:59.557Z,1007.87
2017-06-23T07:17:59.545Z,1007.9
2017-06-23T07:18:59.585Z,1007.89
2017-06-23T07:19:59.523Z,1007.87
2017-06-23T07:20:59.511Z,1007.91
2017-06-23T07:21:59.502Z,1007.91
2017-06-23T07:22:59.490Z,1007.87
2017-06-23T07:23:59.476Z,1007.91
2017-06-23T07:24:59.515Z,1007.93
2017-06-23T07:25:59.458Z,1007.94
2017-06-23T07:26:59.446Z,1007.97
2017-06-23T07:27:59.432Z,1007.93
2017-06-23T07:28:59.422Z,1007.99
2017-06-23T07:29:59.419Z,1007.98
2017-06-23T07:30:59.400Z,1007.95
2017-06-23T07:31:59.388Z,1007.98
2017-06-23T07:32:59.376Z,1007.99
2017-06-23T07:33:59.365Z,1008.02
2017-06-23T07:34:59.351Z,1008.07
2017-06-23T07:35:59.392Z,1008.07
2017-06-23T07:36:59.330Z,1008.04
2017-06-23T07:37:59.320Z,1008.04
2017-06-23T07:38:59.312Z,1008.02
2017-06-23T07:39:59.299Z,1008.05
2017-06-23T07:40:59.288Z,1008.07
2017-06-23T07:41:59.277Z,1008.1
2017-06-23T07:42:59.269Z,1008.08
2017-06-23T07:43:59.264Z,1008.08
2017-06-23T07:44:59.247Z,1008.06
2017-06-23T07:45:59.234Z,1008.08
2017-06-23T07:46:59.223Z,1008.13
2017-06-23T07:47:59.216Z,1008.18
2017-06-23T07:48:59.205Z,1008.16
2017-06-23T07:49:59.195Z,1008.1
2017-06-23T07:50:59.186Z,1008.16
2017-06-23T07:51:59.174Z,1008.15
2017-06-23T07:52:59.165Z,1008.12
2017-06-23T07:53:59.158Z,1008.16
2017-06-23T07:54:59.143Z,1008.17
2017-06-23T07:55:59.133Z,1008.2
2017-06-23T07:56:59.121Z,1008.25
2017-06-23T07:57:59.116Z,1008.22
2017-06-23T07:58:59.101Z,1008.23
2017-06-23T07:59:59.091Z,1008.22
2017-06-23T08:00:59.083Z,1008.31
2017-06-23T08:01:59.074Z,1008.27
2017-06-23T08:02:59.313Z,1008.33
2017-06-23T08:03:59.057Z,1008.26
2017-06-23T08:04:59.048Z,1008.23
2017-06-23T08:05:59.037Z,1008.23
2017-06-23T08:06:59.030Z,1008.29
2017-06-23T08:07:59.071Z,1008.29
2017-06-23T08:08:59.014Z,1008.23
2017-06-23T08:09:59.003Z,1008.22
2017-06-23T08:10:58.996Z,1008.24
2017-06-23T08:11:58.988Z,1008.27
2017-06-23T08:12:58.977Z,1008.32
2017-06-23T08:13:58.967Z,1008.34
2017-06-23T08:14:58.959Z,1008.39
2017-06-23T08:15:58.956Z,1008.42
2017-06-23T08:16:58.990Z,1008.45
2017-06-23T08:17:58.932Z,1008.41
2017-06-23T08:18:58.924Z,1008.45
2017-06-23T08:19:58.910Z,1008.46
2017-06-23T08:20:58.905Z,1008.41
2017-06-23T08:21:58.893Z,1008.4
2017-06-23T08:22:58.886Z,1008.45
2017-06-23T08:23:58.880Z,1008.4
2017-06-23T08:24:58.867Z,1008.46
2017-06-23T08:25:58.857Z,1008.46
2017-06-23T08:26:58.851Z,1008.49
2017-06-23T08:27:58.838Z,1008.37
2017-06-23T08:28:58.829Z,1008.48
2017-06-23T08:29:58.824Z,1008.47
2017-06-23T08:30:58.811Z,1008.49
2017-06-23T08:31:58.802Z,1008.49
2017-06-23T08:32:58.793Z,1008.53
2017-06-23T08:33:58.784Z,1008.49
2017-06-23T08:34:58.772Z,1008.52
2017-06-23T08:35:58.765Z,1008.51
2017-06-23T08:36:58.753Z,1008.49
2017-06-23T08:37:58.746Z,1008.49
2017-06-23T08:38:58.733Z,1008.56
2017-06-23T08:39:58.724Z,1008.58
2017-06-23T08:40:58.715Z,1008.54
2017-06-23T08:41:58.702Z,1008.65
2017-06-23T08:42:58.693Z,1008.56
2017-06-23T08:43:58.681Z,1008.55
2017-06-23T08:44:58.724Z,1008.61
2017-06-23T08:45:58.669Z,1008.57
2017-06-23T08:46:58.660Z,1008.59
2017-06-23T08:47:58.644Z,1008.56
2017-06-23T08:48:58.633Z,1008.65
2017-06-23T08:49:58.621Z,1008.63
2017-06-23T08:50:58.607Z,1008.68
2017-06-23T08:51:58.599Z,1008.63
2017-06-23T08:52:58.588Z,1008.7
2017-06-23T08:53:58.577Z,1008.71
2017-06-23T08:54:58.565Z,1008.62
2017-06-23T08:55:58.555Z,1008.68
2017-06-23T08:56:58.543Z,1008.63
2017-06-23T08:57:58.534Z,1008.62
2017-06-23T08:58:58.523Z,1008.69
2017-06-23T08:59:58.511Z,1008.67
2017-06-23T09:00:58.501Z,1008.69
2017-06-23T09:01:58.490Z,1008.74
2017-06-23T09:02:58.480Z,1008.67
2017-06-23T09:03:58.468Z,1008.72
2017-06-23T09:04:58.456Z,1008.71
2017-06-23T09:05:58.445Z,1008.74
2017-06-23T09:06:58.435Z,1008.72
2017-06-23T09:07:58.420Z,1008.75
2017-06-23T09:08:58.412Z,1008.79
2017-06-23T09:09:58.469Z,1008.78
2017-06-23T09:10:58.385Z,1008.77
2017-06-23T09:11:58.376Z,1008.76
2017-06-23T09:12:58.365Z,1008.74
2017-06-23T09:13:58.350Z,1008.69
2017-06-23T09:14:58.340Z,1008.7
2017-06-23T09:15:58.330Z,1008.71
2017-06-23T09:16:58.323Z,1008.73
2017-06-23T09:17:58.307Z,1008.72
2017-06-23T09:18:58.294Z,1008.72
2017-06-23T09:19:58.286Z,1008.76
2017-06-23T09:20:58.272Z,1008.8
2017-06-23T09:21:58.259Z,1008.74
2017-06-23T09:22:58.247Z,1008.71
2017-06-23T09:23:58.237Z,1008.74
2017-06-23T09:24:58.224Z,1008.68
2017-06-23T09:25:58.214Z,1008.77
2017-06-23T09:26:58.203Z,1008.76
2017-06-23T09:27:58.187Z,1008.71
2017-06-23T09:28:58.176Z,1008.71
2017-06-23T09:29:58.166Z,1008.73
2017-06-23T09:30:58.158Z,1008.73
2017-06-23T09:31:58.146Z,1008.76
2017-06-23T09:32:58.136Z,1008.79
2017-06-23T09:33:58.125Z,1008.74
2017-06-23T09:34:58.112Z,1008.7
2017-06-23T09:35:58.102Z,1008.67
2017-06-23T09:36:58.097Z,1008.65
2017-06-23T09:37:58.086Z,1008.68
2017-06-23T09:38:58.072Z,1008.66
2017-06-23T09:39:58.061Z,1008.71
2017-06-23T09:40:58.049Z,1008.66
2017-06-23T09:41:58.039Z,1008.67
2017-06-23T09:42:58.028Z,1008.7
2017-06-23T09:43:58.016Z,1008.74
2017-06-23T09:44:58.053Z,1008.77
2017-06-23T09:45:57.991Z,1008.74
2017-06-23T09:46:57.981Z,1008.74
2017-06-23T09:47:57.970Z,1008.64
2017-06-23T09:48:57.958Z,1008.72
2017-06-23T09:49:57.942Z,1008.66
2017-06-23T09:50:57.930Z,1008.66
2017-06-23T09:51:57.920Z,1008.71
2017-06-23T09:52:57.914Z,1008.71
2017-06-23T09:53:57.953Z,1008.76
2017-06-23T09:54:57.885Z,1008.75
2017-06-23T09:55:57.875Z,1008.75
2017-06-23T09:56:57.862Z,1008.7
2017-06-23T09:57:57.860Z,1008.74
2017-06-23T09:58:57.837Z,1008.66
2017-06-23T09:59:57.831Z,1008.69
2017-06-23T10:00:57.816Z,1008.7
2017-06-23T10:01:57.805Z,1008.69
2017-06-23T10:02:57.793Z,1008.7
2017-06-23T10:03:57.781Z,1008.68
2017-06-23T10:04:57.773Z,1008.68
2017-06-23T10:05:57.761Z,1008.69
2017-06-23T10:06:57.748Z,1008.67
2017-06-23T10:07:57.736Z,1008.68
2017-06-23T10:08:57.728Z,1008.73
2017-06-23T10:09:57.716Z,1008.72
2017-06-23T10:10:57.702Z,1008.72
2017-06-23T10:11:57.687Z,1008.79
2017-06-23T10:12:57.678Z,1008.76
2017-06-23T10:13:57.713Z,1008.76
2017-06-23T10:14:57.655Z,1008.79
2017-06-23T10:15:57.640Z,1008.73
2017-06-23T10:16:57.632Z,1008.81
2017-06-23T10:17:57.614Z,1008.79
2017-06-23T10:18:57.599Z,1008.83
2017-06-23T10:19:57.588Z,1008.71
2017-06-23T10:20:57.573Z,1008.71
2017-06-23T10:21:57.564Z,1008.71
2017-06-23T10:22:57.547Z,1008.7
2017-06-23T10:23:57.540Z,1008.67
2017-06-23T10:24:57.527Z,1008.7
2017-06-23T10:25:57.513Z,1008.65
2017-06-23T10:26:57.503Z,1008.63
2017-06-23T10:27:57.490Z,1008.68
2017-06-23T10:28:57.497Z,1008.67
2017-06-23T10:29:57.468Z,1008.72
2017-06-23T10:30:57.459Z,1008.66
2017-06-23T10:31:57.496Z,1008.7
2017-06-23T10:32:57.432Z,1008.64
2017-06-23T10:33:57.423Z,1008.69
2017-06-23T10:34:57.409Z,1008.71
2017-06-23T10:35:57.400Z,1008.77
2017-06-23T10:36:57.389Z,1008.75
2017-06-23T10:37:57.380Z,1008.85
2017-06-23T10:38:57.367Z,1008.79
2017-06-23T10:39:57.354Z,1008.78
2017-06-23T10:40:57.352Z,1008.75
2017-06-23T10:41:57.339Z,1008.75
2017-06-23T10:42:57.323Z,1008.74
2017-06-23T10:43:57.309Z,1008.76
2017-06-23T10:44:57.352Z,1008.72
2017-06-23T10:45:57.292Z,1008.73
2017-06-23T10:46:57.277Z,1008.76
2017-06-23T10:47:57.267Z,1008.8
2017-06-23T10:48:57.255Z,1008.77
2017-06-23T10:49:57.243Z,1008.72
2017-06-23T10:50:57.235Z,1008.73
2017-06-23T10:51:57.220Z,1008.79
2017-06-23T10:52:57.211Z,1008.79
2017-06-23T10:53:57.201Z,1008.73
2017-06-23T10:54:57.185Z,1008.76
2017-06-23T10:55:57.175Z,1008.66
2017-06-23T10:56:57.167Z,1008.75
2017-06-23T10:57:57.152Z,1008.74
2017-06-23T10:58:57.145Z,1008.71
2017-06-23T10:59:57.132Z,1008.72
2017-06-23T11:00:57.119Z,1008.72
2017-06-23T11:01:57.111Z,1008.7
2017-06-23T11:02:57.100Z,1008.76
2017-06-23T11:03:57.089Z,1008.71
2017-06-23T11:04:57.079Z,1008.7
2017-06-23T11:05:57.072Z,1008.71
2017-06-23T11:06:57.062Z,1008.59
2017-06-23T11:07:57.048Z,1008.66
2017-06-23T11:08:57.039Z,1008.6
2017-06-23T11:09:57.030Z,1008.68
2017-06-23T11:10:57.018Z,1008.67
2017-06-23T11:11:57.010Z,1008.69
2017-06-23T11:12:56.998Z,1008.68
2017-06-23T11:13:56.988Z,1008.71
2017-06-23T11:14:56.976Z,1008.72
2017-06-23T11:15:56.968Z,1008.69
2017-06-23T11:16:56.961Z,1008.7
2017-06-23T11:17:56.950Z,1008.61
2017-06-23T11:18:56.933Z,1008.65
2017-06-23T11:19:56.922Z,1008.68
2017-06-23T11:20:56.914Z,1008.71
2017-06-23T11:21:56.901Z,1008.67
2017-06-23T11:22:56.888Z,1008.68
2017-06-23T11:23:56.877Z,1008.72
2017-06-23T11:24:56.865Z,1008.75
2017-06-23T11:25:56.852Z,1008.71
2017-06-23T11:26:56.839Z,1008.73
2017-06-23T11:27:56.831Z,1008.71
2017-06-23T11:28:56.816Z,1008.7
2017-06-23T11:29:56.803Z,1008.68
2017-06-23T11:30:56.792Z,1008.67
2017-06-23T11:31:56.777Z,1008.69
2017-06-23T11:32:56.766Z,1008.75
2017-06-23T11:33:56.752Z,1008.73
2017-06-23T11:34:56.740Z,1008.78
2017-06-23T11:35:56.727Z,1008.7
2017-06-23T11:36:56.714Z,1008.73
2017-06-23T11:37:56.746Z,1008.76
2017-06-23T11:38:56.686Z,1008.73
2017-06-23T11:39:56.678Z,1008.72
2017-06-23T11:40:56.662Z,1008.74
2017-06-23T11:41:56.649Z,1008.76
2017-06-23T11:42:56.632Z,1008.74
2017-06-23T11:43:56.621Z,1008.77
2017-06-23T11:44:56.609Z,1008.78
2017-06-23T11:45:56.592Z,1008.72
2017-06-23T11:46:56.580Z,1008.75
2017-06-23T11:47:56.564Z,1008.71
2017-06-23T11:48:56.551Z,1008.66
2017-06-23T11:49:56.537Z,1008.69
2017-06-23T11:50:56.522Z,1008.65
2017-06-23T11:51:56.513Z,1008.63
2017-06-23T11:52:56.499Z,1008.59
2017-06-23T11:53:56.487Z,1008.57
2017-06-23T11:54:56.471Z,1008.58
2017-06-23T11:55:56.457Z,1008.59
2017-06-23T11:56:56.493Z,1008.62
2017-06-23T11:57:56.429Z,1008.53
2017-06-23T11:58:56.417Z,1008.59
2017-06-23T11:59:56.403Z,1008.53
2017-06-23T12:00:56.389Z,1008.55
2017-06-23T12:01:56.374Z,1008.54
2017-06-23T12:02:56.363Z,1008.53
2017-06-23T12:03:56.350Z,1008.53
2017-06-23T12:04:56.335Z,1008.52
2017-06-23T12:05:56.327Z,1008.54
2017-06-23T12:06:56.310Z,1008.47